createdAt,value
2023-02-17T00:01:37.497Z,1.00
2023-02-17T00:04:05.957Z,1.00
2023-02-17T00:06:35.658Z,1.10
2023-02-17T00:09:04.935Z,7.80
2023-02-17T00:11:33.488Z,15.00
2023-02-17T00:14:01.924Z,23.30
2023-02-17T00:16:30.696Z,99.90
2023-02-17T00:19:01.184Z,99.90
2023-02-17T00:21:32.916Z,1.00
2023-02-17T00:24:03.292Z,1.00
2023-02-17T00:26:31.565Z,99.90
2023-02-17T00:29:00.295Z,1.00
2023-02-17T00:31:28.655Z,1.00
2023-02-17T00:33:57.325Z,1.00
2023-02-17T00:36:27.189Z,1.00
2023-02-17T00:38:57.899Z,1.00
2023-02-17T00:41:28.420Z,1.00
2023-02-17T00:43:57.139Z,1.00
2023-02-17T00:46:26.250Z,1.00
2023-02-17T00:48:54.689Z,1.00
2023-02-17T00:51:23.365Z,1.00
2023-02-17T00:53:52.111Z,1.00
2023-02-17T00:56:20.342Z,1.00
2023-02-17T00:58:49.809Z,1.00
2023-02-17T01:01:18.074Z,1.00
2023-02-17T01:03:46.341Z,1.00
2023-02-17T01:06:26.490Z,1.00
2023-02-17T01:08:55.016Z,1.00
2023-02-17T01:11:25.610Z,1.00
2023-02-17T01:13:56.431Z,1.00
2023-02-17T01:16:27.417Z,99.90
2023-02-17T01:18:56.544Z,99.90
2023-02-17T01:21:27.147Z,1.00
2023-02-17T01:23:57.681Z,1.00
2023-02-17T01:26:27.793Z,1.00
2023-02-17T01:28:58.411Z,99.90
2023-02-17T01:31:28.656Z,99.90
2023-02-17T01:33:59.740Z,99.90
2023-02-17T01:36:28.563Z,99.90
2023-02-17T01:38:56.864Z,99.90
2023-02-17T01:41:26.985Z,99.90
2023-02-17T01:44:19.849Z,99.90
2023-02-17T01:46:56.849Z,99.90
2023-02-17T01:49:37.078Z,99.90
2023-02-17T01:52:11.971Z,91.50
2023-02-17T01:54:46.265Z,16.10
2023-02-17T01:57:19.420Z,1.00
2023-02-17T01:59:49.899Z,1.00
2023-02-17T02:02:18.986Z,1.00
2023-02-17T02:04:50.054Z,1.00
2023-02-17T02:07:22.428Z,1.00
2023-02-17T02:09:54.165Z,1.00
2023-02-17T02:12:25.411Z,1.00
2023-02-17T02:14:59.793Z,1.00
2023-02-17T02:17:47.211Z,1.00
2023-02-17T02:20:50.081Z,1.00
2023-02-17T02:23:45.856Z,1.00
2023-02-17T02:26:51.968Z,1.00
2023-02-17T02:29:53.757Z,1.00
2023-02-17T02:32:58.489Z,1.00
2023-02-17T02:35:32.970Z,1.00
2023-02-17T02:38:06.990Z,1.00
2023-02-17T02:40:38.952Z,1.00
2023-02-17T02:43:07.508Z,1.00
2023-02-17T02:45:36.172Z,1.00
2023-02-17T02:48:05.958Z,1.00
2023-02-17T02:50:54.552Z,1.00
2023-02-17T02:53:43.050Z,1.00
2023-02-17T02:56:20.928Z,1.00
2023-02-17T02:58:58.075Z,1.00
2023-02-17T03:01:37.292Z,1.00
2023-02-17T03:04:14.456Z,1.00
2023-02-17T03:06:47.897Z,1.00
2023-02-17T03:09:20.734Z,1.00
2023-02-17T03:11:50.234Z,1.00
2023-02-17T03:14:21.588Z,1.00
2023-02-17T03:16:51.086Z,1.00
2023-02-17T03:19:24.226Z,1.00
2023-02-17T03:21:58.387Z,1.00
2023-02-17T03:24:26.732Z,1.00
2023-02-17T03:26:54.928Z,1.00
2023-02-17T03:29:23.353Z,1.00
2023-02-17T03:31:51.759Z,1.00
2023-02-17T03:34:21.326Z,1.00
2023-02-17T03:37:00.871Z,1.00
2023-02-17T03:39:41.137Z,1.00
2023-02-17T03:42:09.965Z,1.00
2023-02-17T03:44:38.216Z,1.00
2023-02-17T03:47:06.385Z,1.00
2023-02-17T03:49:41.652Z,1.00
2023-02-17T03:52:13.841Z,1.00
2023-02-17T03:54:42.175Z,1.00
2023-02-17T03:57:10.274Z,1.00
2023-02-17T03:59:38.691Z,1.00
2023-02-17T04:02:12.061Z,1.00
2023-02-17T04:04:41.510Z,1.00
2023-02-17T04:07:09.619Z,1.00
2023-02-17T04:09:37.808Z,1.00
2023-02-17T04:12:06.474Z,99.90
2023-02-17T04:14:34.701Z,99.90
2023-02-17T04:17:03.265Z,99.90
2023-02-17T04:19:31.346Z,99.90
2023-02-17T04:22:00.883Z,1.00
2023-02-17T04:24:29.050Z,1.00
2023-02-17T04:26:57.114Z,1.00
2023-02-17T04:29:28.553Z,1.00
2023-02-17T04:32:00.536Z,1.00
2023-02-17T04:34:28.947Z,1.00
2023-02-17T04:37:11.471Z,99.90
2023-02-17T04:39:51.687Z,99.90
2023-02-17T04:42:27.760Z,99.90
2023-02-17T04:45:03.038Z,99.90
2023-02-17T04:47:38.774Z,1.00
2023-02-17T04:50:09.594Z,1.00
2023-02-17T04:52:39.234Z,1.00
2023-02-17T04:55:08.771Z,1.00
2023-02-17T04:57:36.886Z,1.00
2023-02-17T05:00:06.924Z,40.60
2023-02-17T05:02:35.233Z,97.20
2023-02-17T05:05:03.410Z,1.00
2023-02-17T05:07:31.664Z,1.00
2023-02-17T05:10:01.176Z,1.00
2023-02-17T05:12:30.104Z,1.00
2023-02-17T05:14:58.432Z,1.00
2023-02-17T05:17:26.484Z,1.00
2023-02-17T05:19:54.577Z,1.00
2023-02-17T05:22:22.774Z,1.00
2023-02-17T05:24:50.933Z,1.00
2023-02-17T05:27:21.234Z,1.00
2023-02-17T05:29:49.446Z,1.00
2023-02-17T05:32:17.486Z,99.90
2023-02-17T05:34:53.078Z,92.00
2023-02-17T05:37:25.125Z,1.00
2023-02-17T05:39:53.434Z,1.00
2023-02-17T05:42:23.152Z,1.00
2023-02-17T05:44:51.393Z,1.00
2023-02-17T05:47:19.534Z,1.00
2023-02-17T05:49:56.791Z,1.00
2023-02-17T05:52:26.102Z,1.00
2023-02-17T05:54:54.272Z,1.00
2023-02-17T05:57:24.032Z,1.00
2023-02-17T06:03:43.017Z,1.00
2023-02-17T06:06:11.248Z,99.90
2023-02-17T06:08:39.719Z,1.00
2023-02-17T06:11:11.232Z,1.00
2023-02-17T06:14:23.197Z,99.90
2023-02-17T06:17:11.749Z,99.90
2023-02-17T06:20:07.188Z,99.90
2023-02-17T06:22:58.302Z,99.90
2023-02-17T06:25:59.442Z,99.90
2023-02-17T06:28:36.345Z,1.00
2023-02-17T06:31:14.220Z,99.90
2023-02-17T06:33:45.482Z,99.90
2023-02-17T06:36:52.142Z,99.90
2023-02-17T06:42:30.306Z,99.90
2023-02-17T06:45:04.327Z,99.90
2023-02-17T06:47:34.229Z,99.90
2023-02-17T06:50:52.536Z,99.90
2023-02-17T06:53:20.864Z,99.90
2023-02-17T06:55:56.611Z,99.90
2023-02-17T06:58:36.239Z,1.00
2023-02-17T07:01:06.585Z,1.00
2023-02-17T07:03:36.297Z,1.00
2023-02-17T07:06:08.321Z,1.00
2023-02-17T07:08:41.700Z,1.00
2023-02-17T07:11:12.480Z,5.30
2023-02-17T07:13:41.031Z,22.30
2023-02-17T07:16:14.982Z,12.40
2023-02-17T07:18:44.547Z,8.50
2023-02-17T07:21:12.730Z,20.90
2023-02-17T07:23:40.887Z,8.90
2023-02-17T07:26:10.952Z,1.00
2023-02-17T07:28:40.229Z,1.00
2023-02-17T07:31:08.924Z,1.00
2023-02-17T07:33:40.011Z,1.00
2023-02-17T07:36:10.814Z,1.00
2023-02-17T07:41:30.738Z,1.00
2023-02-17T07:44:08.074Z,1.00
2023-02-17T07:46:37.544Z,1.00
2023-02-17T07:49:38.714Z,1.00
2023-02-17T07:55:56.321Z,1.00
2023-02-17T07:58:50.815Z,1.00
2023-02-17T08:01:22.790Z,1.00
2023-02-17T08:03:52.229Z,1.00
2023-02-17T08:06:32.191Z,1.00
2023-02-17T08:09:19.496Z,1.00
2023-02-17T08:12:06.457Z,1.00
2023-02-17T08:14:44.303Z,1.00
2023-02-17T08:17:29.121Z,1.00
2023-02-17T08:20:10.525Z,1.00
2023-02-17T08:22:47.896Z,1.00
2023-02-17T08:26:02.194Z,1.00
2023-02-17T08:28:38.515Z,1.00
2023-02-17T08:31:10.083Z,1.00
2023-02-17T08:33:38.337Z,1.00
2023-02-17T08:36:08.311Z,1.00
2023-02-17T08:38:36.798Z,1.00
2023-02-17T08:41:42.236Z,1.00
2023-02-17T08:47:44.875Z,1.00
2023-02-17T08:50:20.330Z,1.00
2023-02-17T08:52:48.753Z,1.00
2023-02-17T08:55:19.084Z,1.00
2023-02-17T08:57:47.464Z,1.00
2023-02-17T09:00:17.671Z,1.00
2023-02-17T09:02:47.121Z,1.00
2023-02-17T09:05:16.066Z,1.00
2023-02-17T09:08:17.897Z,1.00
2023-02-17T09:11:16.548Z,1.00
2023-02-17T09:14:18.978Z,1.00
2023-02-17T09:17:42.500Z,1.00
2023-02-17T09:20:25.516Z,1.00
2023-02-17T09:22:54.779Z,1.00
2023-02-17T09:25:23.032Z,1.00
2023-02-17T09:27:51.220Z,1.00
2023-02-17T09:30:19.609Z,1.00
2023-02-17T09:32:48.085Z,1.00
2023-02-17T09:35:19.092Z,1.00
2023-02-17T09:37:50.088Z,1.00
2023-02-17T09:40:22.328Z,99.90
2023-02-17T09:42:51.706Z,1.00
2023-02-17T09:45:26.025Z,99.90
2023-02-17T09:47:57.165Z,99.90
2023-02-17T09:50:31.082Z,1.00
2023-02-17T09:53:06.122Z,1.00
2023-02-17T09:55:40.706Z,1.00
2023-02-17T09:58:26.338Z,1.00
2023-02-17T10:08:07.239Z,1.00
2023-02-17T10:10:49.589Z,1.00
2023-02-17T10:13:32.841Z,1.00
2023-02-17T10:19:47.308Z,1.00
2023-02-17T10:22:21.092Z,1.00
2023-02-17T10:24:52.189Z,1.00
2023-02-17T10:27:54.514Z,1.00
2023-02-17T10:30:35.631Z,1.00
2023-02-17T10:33:18.155Z,1.00
2023-02-17T10:36:14.052Z,1.00
2023-02-17T10:44:57.421Z,1.00
2023-02-17T10:48:05.784Z,1.00
2023-02-17T10:50:42.301Z,1.00
2023-02-17T10:53:23.240Z,1.00
2023-02-17T10:56:39.771Z,1.00
2023-02-17T11:02:37.955Z,1.00
2023-02-17T11:05:06.858Z,1.00
2023-02-17T11:18:18.664Z,1.00
2023-02-17T11:20:48.875Z,1.00
2023-02-17T11:23:25.381Z,1.00
2023-02-17T11:25:59.858Z,1.00
2023-02-17T11:28:35.184Z,1.00
2023-02-17T11:31:15.808Z,1.00
2023-02-17T11:33:45.717Z,1.00
2023-02-17T11:36:25.800Z,1.00
2023-02-17T11:39:07.785Z,1.00
2023-02-17T11:41:51.129Z,1.00
2023-02-17T11:44:27.189Z,1.00
2023-02-17T11:47:36.816Z,1.00
2023-02-17T11:50:43.392Z,1.00
2023-02-17T11:53:30.160Z,1.00
2023-02-17T11:56:16.179Z,1.00
2023-02-17T11:59:10.518Z,1.00
2023-02-17T12:01:59.762Z,1.00
2023-02-17T12:04:31.266Z,1.00
2023-02-17T12:07:29.555Z,1.00
2023-02-17T12:10:24.069Z,1.00
2023-02-17T12:13:25.849Z,1.00
2023-02-17T12:19:44.898Z,1.00
2023-02-17T12:29:30.040Z,1.00
2023-02-17T12:36:21.294Z,99.90
2023-02-17T12:42:22.224Z,99.90
2023-02-17T12:44:54.335Z,99.90
2023-02-17T12:47:32.284Z,99.90
2023-02-17T12:50:07.803Z,99.90
2023-02-17T12:52:40.262Z,99.90
2023-02-17T12:55:20.945Z,99.90
2023-02-17T12:57:58.661Z,99.90
2023-02-17T13:00:36.165Z,99.90
2023-02-17T13:03:07.695Z,99.90
2023-02-17T13:05:42.042Z,99.90
2023-02-17T13:08:20.993Z,99.90
2023-02-17T13:11:04.593Z,99.90
2023-02-17T13:13:38.804Z,99.90
2023-02-17T13:16:15.006Z,99.90
2023-02-17T13:18:50.511Z,99.90
2023-02-17T13:21:31.106Z,99.90
2023-02-17T13:24:19.043Z,99.90
2023-02-17T13:26:55.993Z,99.90
2023-02-17T13:29:41.583Z,99.90
2023-02-17T13:32:49.889Z,99.90
2023-02-17T13:35:34.158Z,99.90
2023-02-17T13:38:08.660Z,99.90
2023-02-17T13:40:40.631Z,99.90
2023-02-17T13:43:17.216Z,99.90
2023-02-17T13:45:50.178Z,99.90
2023-02-17T13:48:26.479Z,99.90
2023-02-17T13:50:58.272Z,99.90
2023-02-17T13:53:40.924Z,99.90
2023-02-17T13:56:24.736Z,99.90
2023-02-17T13:59:16.392Z,99.90
2023-02-17T14:01:58.885Z,99.90
2023-02-17T14:04:30.485Z,99.90
2023-02-17T14:07:07.842Z,99.90
2023-02-17T14:09:51.464Z,99.90
2023-02-17T14:12:27.868Z,99.90
2023-02-17T14:15:18.576Z,99.90
2023-02-17T14:17:46.901Z,99.90
2023-02-17T14:20:33.781Z,99.90
2023-02-17T14:23:11.615Z,99.90
2023-02-17T14:25:43.273Z,99.90
2023-02-17T14:28:34.098Z,99.90
2023-02-17T14:31:25.467Z,99.90
2023-02-17T14:34:27.296Z,99.90
2023-02-17T14:37:16.056Z,99.90
2023-02-17T14:39:44.564Z,99.90
2023-02-17T14:42:13.967Z,99.90
2023-02-17T14:44:53.006Z,99.90
2023-02-17T14:48:13.797Z,99.90
2023-02-17T14:50:48.546Z,99.90
2023-02-17T14:53:43.012Z,99.90
2023-02-17T14:56:56.536Z,99.90
2023-02-17T15:00:01.538Z,99.90
2023-02-17T15:02:30.333Z,99.90
2023-02-17T15:05:01.279Z,99.90
2023-02-17T15:07:35.814Z,99.90
2023-02-17T15:10:06.232Z,99.90
2023-02-17T15:13:03.157Z,99.90
2023-02-17T15:16:18.792Z,99.90
2023-02-17T15:25:32.952Z,99.90
2023-02-17T15:28:01.078Z,99.90
2023-02-17T15:31:00.179Z,99.90
2023-02-17T15:33:32.885Z,99.90
2023-02-17T15:36:02.526Z,99.90
2023-02-17T15:38:30.874Z,99.90
2023-02-17T15:41:01.474Z,99.90
2023-02-17T15:43:39.690Z,99.90
2023-02-17T15:46:14.760Z,99.90
2023-02-17T15:48:43.423Z,99.90
2023-02-17T15:51:27.044Z,99.90
2023-02-17T15:54:08.044Z,99.90
2023-02-17T15:56:50.716Z,99.90
2023-02-17T15:59:26.045Z,99.90
2023-02-17T16:01:56.938Z,99.90
2023-02-17T16:04:26.322Z,99.90
2023-02-17T16:06:59.196Z,99.90
2023-02-17T16:09:41.201Z,99.90
2023-02-17T16:12:54.934Z,99.90
2023-02-17T16:25:24.013Z,99.90
2023-02-17T16:27:58.565Z,99.90
2023-02-17T16:30:44.252Z,99.90
2023-02-17T16:33:13.918Z,99.90
2023-02-17T16:35:42.591Z,99.90
2023-02-17T16:38:49.761Z,99.90
2023-02-17T16:41:22.293Z,99.90
2023-02-17T16:43:51.829Z,99.90
2023-02-17T16:46:25.612Z,99.90
2023-02-17T16:48:53.816Z,99.90
2023-02-17T16:51:21.953Z,99.90
2023-02-17T16:53:50.113Z,99.90
2023-02-17T16:56:20.995Z,99.90
2023-02-17T16:58:51.527Z,99.90
2023-02-17T17:01:24.350Z,99.90
2023-02-17T17:03:52.867Z,99.90
2023-02-17T17:06:25.573Z,99.90
2023-02-17T17:09:20.798Z,99.90
2023-02-17T17:11:49.411Z,99.90
2023-02-17T17:14:19.375Z,99.90
2023-02-17T17:17:01.169Z,99.90
2023-02-17T17:19:35.950Z,99.90
2023-02-17T17:22:05.055Z,99.90
2023-02-17T17:24:33.268Z,99.90
2023-02-17T17:27:01.319Z,99.90
2023-02-17T17:29:29.667Z,99.90
2023-02-17T17:32:01.237Z,99.90
2023-02-17T17:34:29.400Z,99.90
2023-02-17T17:36:59.859Z,99.90
2023-02-17T17:39:27.989Z,99.90
2023-02-17T17:42:01.904Z,99.90
2023-02-17T17:44:30.114Z,99.90
2023-02-17T17:47:07.571Z,99.90
2023-02-17T17:49:35.733Z,99.90
2023-02-17T17:52:05.173Z,99.90
2023-02-17T17:54:33.247Z,99.90
2023-02-17T17:57:01.385Z,99.90
2023-02-17T17:59:31.596Z,99.90
2023-02-17T18:02:14.846Z,99.90
2023-02-17T18:04:51.350Z,99.90
2023-02-17T18:11:07.859Z,1.00
2023-02-17T18:13:38.731Z,99.90
2023-02-17T18:16:13.558Z,99.90
2023-02-17T18:18:43.378Z,99.90
2023-02-17T18:21:15.966Z,99.90
2023-02-17T18:23:44.434Z,99.90
2023-02-17T18:26:14.893Z,99.90
2023-02-17T18:28:45.285Z,99.90
2023-02-17T18:31:41.484Z,99.90
2023-02-17T18:38:03.113Z,99.90
2023-02-17T18:47:00.618Z,99.90
2023-02-17T18:49:30.869Z,99.90
2023-02-17T18:51:58.994Z,99.90
2023-02-17T18:54:28.694Z,45.90
2023-02-17T18:56:57.730Z,95.90
2023-02-17T18:59:25.875Z,99.90
2023-02-17T19:01:54.053Z,1.00
2023-02-17T19:04:25.625Z,1.00
2023-02-17T19:09:57.654Z,1.00
2023-02-17T19:12:26.009Z,1.00
2023-02-17T19:14:56.112Z,1.00
2023-02-17T19:17:27.701Z,99.90
2023-02-17T19:19:55.839Z,99.90
2023-02-17T19:22:24.074Z,99.90
2023-02-17T19:24:54.312Z,1.00
2023-02-17T19:27:46.681Z,1.00
2023-02-17T19:30:36.847Z,99.90
2023-02-17T19:33:15.916Z,1.00
2023-02-17T19:35:58.288Z,1.00
2023-02-17T19:38:26.733Z,1.00
2023-02-17T19:40:55.108Z,1.00
2023-02-17T19:43:33.518Z,1.00
2023-02-17T19:46:05.750Z,1.00
2023-02-17T19:48:34.793Z,1.00
2023-02-17T19:51:07.581Z,1.00
2023-02-17T19:53:38.400Z,1.00
2023-02-17T19:56:12.382Z,1.00
2023-02-17T19:58:46.005Z,1.00
2023-02-17T20:01:19.317Z,1.00
2023-02-17T20:03:47.963Z,1.00
2023-02-17T20:06:18.635Z,1.00
2023-02-17T20:08:49.626Z,1.00
2023-02-17T20:11:17.757Z,1.00
2023-02-17T20:13:52.651Z,1.00
2023-02-17T20:16:22.642Z,1.00
2023-02-17T20:21:47.267Z,1.00
2023-02-17T20:24:24.555Z,1.00
2023-02-17T20:26:58.219Z,1.00
2023-02-17T20:29:39.386Z,1.00
2023-02-17T20:32:08.498Z,1.00
2023-02-17T20:34:42.346Z,99.90
2023-02-17T20:37:13.223Z,99.90
2023-02-17T20:39:45.297Z,99.90
2023-02-17T20:42:14.911Z,99.90
2023-02-17T20:44:52.430Z,99.90
2023-02-17T20:47:26.982Z,99.90
2023-02-17T20:49:57.040Z,99.90
2023-02-17T20:52:30.395Z,99.90
2023-02-17T20:55:06.399Z,99.90
2023-02-17T20:57:36.116Z,99.90
2023-02-17T21:00:24.294Z,99.90
2023-02-17T21:03:20.036Z,99.90
2023-02-17T21:09:22.072Z,99.90
2023-02-17T21:12:00.275Z,99.90
2023-02-17T21:14:29.368Z,99.90
2023-02-17T21:17:04.379Z,99.90
2023-02-17T21:19:36.229Z,99.90
2023-02-17T21:22:05.513Z,99.90
2023-02-17T21:24:33.764Z,99.90
2023-02-17T21:27:03.327Z,99.90
2023-02-17T21:29:43.493Z,99.90
2023-02-17T21:32:16.529Z,99.90
2023-02-17T21:34:48.345Z,99.90
2023-02-17T21:37:16.664Z,99.90
2023-02-17T21:39:46.831Z,99.90
2023-02-17T21:42:15.030Z,99.90
2023-02-17T21:44:55.281Z,99.90
2023-02-17T21:47:24.744Z,99.90
2023-02-17T21:49:55.725Z,99.90
2023-02-17T21:52:25.705Z,99.90
2023-02-17T21:54:53.923Z,99.90
2023-02-17T21:57:23.101Z,1.00
2023-02-17T21:59:51.473Z,1.00
2023-02-17T22:02:21.158Z,1.00
2023-02-17T22:04:52.117Z,1.00
2023-02-17T22:07:40.245Z,1.00
2023-02-17T22:10:09.642Z,99.90
2023-02-17T22:12:43.029Z,99.90
2023-02-17T22:15:16.721Z,99.90
2023-02-17T22:17:48.488Z,99.90
2023-02-17T22:20:19.494Z,99.90
2023-02-17T22:22:55.265Z,99.90
2023-02-17T22:25:24.886Z,99.90
2023-02-17T22:27:53.026Z,99.90
2023-02-17T22:30:21.303Z,99.90
2023-02-17T22:32:49.500Z,99.90
2023-02-17T22:35:24.285Z,99.90
2023-02-17T22:37:52.482Z,99.90
2023-02-17T22:40:20.871Z,99.90
2023-02-17T22:42:50.398Z,99.90
2023-02-17T22:45:18.927Z,99.90
2023-02-17T22:47:48.121Z,99.90
2023-02-17T22:50:16.718Z,99.90
2023-02-17T22:52:46.279Z,99.90
2023-02-17T22:55:17.088Z,99.90
2023-02-17T22:57:47.516Z,99.90
2023-02-17T23:00:17.094Z,99.90
2023-02-17T23:02:45.229Z,99.90
2023-02-17T23:05:13.789Z,99.90
2023-02-17T23:07:42.007Z,99.90
2023-02-17T23:10:11.941Z,99.90
2023-02-17T23:12:40.369Z,99.90
2023-02-17T23:15:12.666Z,99.90
2023-02-17T23:17:59.462Z,99.90
2023-02-17T23:20:27.677Z,99.90
2023-02-17T23:22:55.873Z,99.90
2023-02-17T23:25:25.783Z,99.90
2023-02-17T23:28:12.703Z,99.90
2023-02-17T23:30:44.610Z,99.90
2023-02-17T23:33:14.623Z,99.90
2023-02-17T23:35:50.821Z,99.90
2023-02-17T23:38:29.026Z,99.90
2023-02-17T23:41:01.880Z,99.90
2023-02-17T23:43:31.394Z,99.90
2023-02-17T23:46:00.888Z,99.90
2023-02-17T23:48:29.291Z,99.90
2023-02-17T23:50:58.296Z,99.90
2023-02-17T23:53:27.075Z,99.90
2023-02-17T23:56:05.576Z,99.90
2023-02-17T23:58:34.515Z,99.90
